sensor_id;sensor_type;location;lat;lon;timestamp;pressure;altitude;pressure_sealevel;temperature;humidity
39105;BME280;46464;51.154;13.812;2023-06-26T00:00:02;51823.66;;;-146.96;84.70
39105;BME280;46464;51.154;13.812;2023-06-26T00:02:30;51905.03;;;-146.96;84.70
39105;BME280;46464;51.154;13.812;2023-06-26T00:04:59;51868.41;;;-146.96;84.98
39105;BME280;46464;51.154;13.812;2023-06-26T00:07:29;51913.16;;;-146.96;85.12
39105;BME280;46464;51.154;13.812;2023-06-26T00:09:57;51870.44;;;-146.96;85.04
39105;BME280;46464;51.154;13.812;2023-06-26T00:12:25;51860.25;;;-146.96;85.06
39105;BME280;46464;51.154;13.812;2023-06-26T00:14:51;51892.81;;;-146.96;85.43
39105;BME280;46464;51.154;13.812;2023-06-26T00:17:18;51907.06;;;-146.96;85.51
39105;BME280;46464;51.154;13.812;2023-06-26T00:19:45;51868.41;;;-146.96;85.76
39105;BME280;46464;51.154;13.812;2023-06-26T00:22:11;51870.44;;;-146.96;85.82
39105;BME280;46464;51.154;13.812;2023-06-26T00:24:38;51880.63;;;-146.96;85.58
39105;BME280;46464;51.154;13.812;2023-06-26T00:27:05;51876.53;;;-146.96;85.37
39105;BME280;46464;51.154;13.812;2023-06-26T00:29:31;51874.50;;;-146.96;85.41
39105;BME280;46464;51.154;13.812;2023-06-26T00:31:58;51874.50;;;-146.96;85.26
39105;BME280;46464;51.154;13.812;2023-06-26T00:34:24;51837.88;;;-146.96;85.68
39105;BME280;46464;51.154;13.812;2023-06-26T00:36:51;51888.75;;;-146.96;85.81
39105;BME280;46464;51.154;13.812;2023-06-26T00:39:18;51896.88;;;-146.96;86.23
39105;BME280;46464;51.154;13.812;2023-06-26T00:41:44;51890.78;;;-146.96;86.29
39105;BME280;46464;51.154;13.812;2023-06-26T00:44:10;51907.06;;;-146.96;86.49
39105;BME280;46464;51.154;13.812;2023-06-26T00:46:37;51882.66;;;-146.96;86.46
39105;BME280;46464;51.154;13.812;2023-06-26T00:49:04;51898.91;;;-146.96;86.61
39105;BME280;46464;51.154;13.812;2023-06-26T00:51:31;51919.28;;;-146.96;86.77
39105;BME280;46464;51.154;13.812;2023-06-26T00:53:57;51884.69;;;-146.96;86.70
39105;BME280;46464;51.154;13.812;2023-06-26T00:56:24;51884.69;;;-146.96;86.82
39105;BME280;46464;51.154;13.812;2023-06-26T00:58:50;51888.75;;;-146.96;87.08
39105;BME280;46464;51.154;13.812;2023-06-26T01:01:17;51888.75;;;-146.96;87.02
39105;BME280;46464;51.154;13.812;2023-06-26T01:03:44;51892.81;;;-146.96;87.32
39105;BME280;46464;51.154;13.812;2023-06-26T01:06:13;51888.75;;;-146.96;87.12
39105;BME280;46464;51.154;13.812;2023-06-26T01:08:41;51913.16;;;-146.96;87.26
39105;BME280;46464;51.154;13.812;2023-06-26T01:11:08;51921.31;;;-146.96;87.63
39105;BME280;46464;51.154;13.812;2023-06-26T01:13:35;51909.09;;;-146.96;87.84
39105;BME280;46464;51.154;13.812;2023-06-26T01:16:03;51898.91;;;-146.96;87.77
39105;BME280;46464;51.154;13.812;2023-06-26T01:18:31;51915.19;;;-146.96;87.94
39105;BME280;46464;51.154;13.812;2023-06-26T01:25:01;51935.53;;;-146.96;88.02
39105;BME280;46464;51.154;13.812;2023-06-26T01:27:31;51929.44;;;-146.96;88.11
39105;BME280;46464;51.154;13.812;2023-06-26T01:30:03;51941.66;;;-146.96;88.32
39105;BME280;46464;51.154;13.812;2023-06-26T01:32:31;51927.41;;;-146.96;88.56
39105;BME280;46464;51.154;13.812;2023-06-26T01:34:59;51931.47;;;-146.96;88.60
39105;BME280;46464;51.154;13.812;2023-06-26T01:37:26;51905.03;;;-146.96;88.59
39105;BME280;46464;51.154;13.812;2023-06-26T01:39:52;51890.78;;;-146.96;88.81
39105;BME280;46464;51.154;13.812;2023-06-26T01:42:19;51921.31;;;-146.96;88.76
39105;BME280;46464;51.154;13.812;2023-06-26T01:44:46;51913.16;;;-146.96;88.76
39105;BME280;46464;51.154;13.812;2023-06-26T01:47:16;51921.31;;;-146.96;89.40
39105;BME280;46464;51.154;13.812;2023-06-26T01:49:49;51953.84;;;-146.96;90.07
39105;BME280;46464;51.154;13.812;2023-06-26T01:52:27;51903.00;;;-146.96;90.73
39105;BME280;46464;51.154;13.812;2023-06-26T01:57:38;51947.75;;;-146.96;90.53
39105;BME280;46464;51.154;13.812;2023-06-26T02:00:06;51925.38;;;-146.96;90.33
39105;BME280;46464;51.154;13.812;2023-06-26T02:02:36;51935.53;;;-146.96;90.21
39105;BME280;46464;51.154;13.812;2023-06-26T02:05:03;51927.41;;;-146.96;90.27
39105;BME280;46464;51.154;13.812;2023-06-26T02:07:30;51927.41;;;-146.96;90.08
39105;BME280;46464;51.154;13.812;2023-06-26T02:09:56;51931.47;;;-146.96;90.14
39105;BME280;46464;51.154;13.812;2023-06-26T02:12:23;51945.72;;;-146.96;90.00
39105;BME280;46464;51.154;13.812;2023-06-26T02:14:49;51935.53;;;-146.96;89.82
39105;BME280;46464;51.154;13.812;2023-06-26T02:17:17;51917.22;;;-146.96;90.06
39105;BME280;46464;51.154;13.812;2023-06-26T02:19:44;51947.75;;;-146.96;89.78
39105;BME280;46464;51.154;13.812;2023-06-26T02:22:15;51923.34;;;-146.96;89.77
39105;BME280;46464;51.154;13.812;2023-06-26T02:24:44;51941.66;;;-146.96;89.71
39105;BME280;46464;51.154;13.812;2023-06-26T02:27:11;51943.69;;;-146.96;89.91
39105;BME280;46464;51.154;13.812;2023-06-26T02:29:39;51964.03;;;-146.96;89.74
39105;BME280;46464;51.154;13.812;2023-06-26T02:32:06;51931.47;;;-146.96;90.07
39105;BME280;46464;51.154;13.812;2023-06-26T02:34:32;51911.13;;;-146.96;90.12
39105;BME280;46464;51.154;13.812;2023-06-26T02:36:59;51953.84;;;-146.96;90.24
39105;BME280;46464;51.154;13.812;2023-06-26T02:39:27;51941.66;;;-146.96;90.62
39105;BME280;46464;51.154;13.812;2023-06-26T02:41:53;51949.78;;;-146.96;90.64
39105;BME280;46464;51.154;13.812;2023-06-26T02:44:20;51947.75;;;-146.96;90.88
39105;BME280;46464;51.154;13.812;2023-06-26T02:46:53;51976.22;;;-146.96;90.67
39105;BME280;46464;51.154;13.812;2023-06-26T02:49:20;51953.84;;;-146.96;90.84
39105;BME280;46464;51.154;13.812;2023-06-26T02:51:49;51964.03;;;-146.96;90.97
39105;BME280;46464;51.154;13.812;2023-06-26T02:54:15;51962.00;;;-146.96;91.26
39105;BME280;46464;51.154;13.812;2023-06-26T02:56:42;51976.22;;;-146.96;91.59
39105;BME280;46464;51.154;13.812;2023-06-26T02:59:13;51951.81;;;-146.96;92.62
39105;BME280;46464;51.154;13.812;2023-06-26T03:01:40;51976.22;;;-146.96;92.54
39105;BME280;46464;51.154;13.812;2023-06-26T03:04:07;51970.13;;;-146.96;92.38
39105;BME280;46464;51.154;13.812;2023-06-26T03:06:33;51959.97;;;-146.96;92.16
39105;BME280;46464;51.154;13.812;2023-06-26T03:08:59;51964.03;;;-146.96;91.61
39105;BME280;46464;51.154;13.812;2023-06-26T03:11:26;51976.22;;;-146.96;90.94
39105;BME280;46464;51.154;13.812;2023-06-26T03:13:53;51974.19;;;-146.96;90.56
39105;BME280;46464;51.154;13.812;2023-06-26T03:16:19;51959.97;;;-146.96;90.10
39105;BME280;46464;51.154;13.812;2023-06-26T03:18:46;51943.69;;;-146.96;90.08
39105;BME280;46464;51.154;13.812;2023-06-26T03:21:12;51966.06;;;-146.96;90.28
39105;BME280;46464;51.154;13.812;2023-06-26T03:23:39;51951.81;;;-146.96;90.63
39105;BME280;46464;51.154;13.812;2023-06-26T03:26:05;51941.66;;;-146.96;91.20
39105;BME280;46464;51.154;13.812;2023-06-26T03:28:32;51982.34;;;-146.96;91.31
39105;BME280;46464;51.154;13.812;2023-06-26T03:30:58;51955.88;;;-146.96;91.14
39105;BME280;46464;51.154;13.812;2023-06-26T03:33:25;52014.88;;;-146.96;91.72
39105;BME280;46464;51.154;13.812;2023-06-26T03:35:52;51966.06;;;-146.96;92.13
39105;BME280;46464;51.154;13.812;2023-06-26T03:38:19;51970.13;;;-146.96;92.06
39105;BME280;46464;51.154;13.812;2023-06-26T03:40:51;51984.38;;;-146.96;92.64
39105;BME280;46464;51.154;13.812;2023-06-26T03:43:18;51978.28;;;-146.96;93.02
39105;BME280;46464;51.154;13.812;2023-06-26T03:45:44;51988.44;;;-146.96;93.22
39105;BME280;46464;51.154;13.812;2023-06-26T03:48:12;51966.06;;;-146.96;93.16
39105;BME280;46464;51.154;13.812;2023-06-26T03:50:39;51941.66;;;-146.96;93.45
39105;BME280;46464;51.154;13.812;2023-06-26T03:53:06;51992.50;;;-146.96;93.57
39105;BME280;46464;51.154;13.812;2023-06-26T03:55:32;51949.78;;;-146.96;93.45
39105;BME280;46464;51.154;13.812;2023-06-26T03:58:00;51957.91;;;-146.96;93.83
39105;BME280;46464;51.154;13.812;2023-06-26T04:00:27;51939.63;;;-146.96;93.91
39105;BME280;46464;51.154;13.812;2023-06-26T04:02:54;51968.09;;;-146.96;93.89
39105;BME280;46464;51.154;13.812;2023-06-26T04:05:21;51937.56;;;-146.96;94.21
39105;BME280;46464;51.154;13.812;2023-06-26T04:07:51;51943.69;;;-146.96;94.47
39105;BME280;46464;51.154;13.812;2023-06-26T04:10:18;51957.91;;;-146.96;94.59
39105;BME280;46464;51.154;13.812;2023-06-26T04:12:44;51945.72;;;-146.96;94.65
39105;BME280;46464;51.154;13.812;2023-06-26T04:15:11;51917.22;;;-146.96;95.78
39105;BME280;46464;51.154;13.812;2023-06-26T04:17:37;51900.97;;;-146.96;94.41
39105;BME280;46464;51.154;13.812;2023-06-26T04:20:04;51927.41;;;-146.96;93.29
39105;BME280;46464;51.154;13.812;2023-06-26T04:22:35;51898.91;;;-146.96;93.11
39105;BME280;46464;51.154;13.812;2023-06-26T04:25:03;51923.34;;;-146.96;92.44
39105;BME280;46464;51.154;13.812;2023-06-26T04:27:29;51905.03;;;-146.96;92.73
39105;BME280;46464;51.154;13.812;2023-06-26T04:30:02;51923.34;;;-146.96;93.14
39105;BME280;46464;51.154;13.812;2023-06-26T04:32:29;51943.69;;;-146.96;94.46
39105;BME280;46464;51.154;13.812;2023-06-26T04:34:56;51915.19;;;-146.96;94.95
39105;BME280;46464;51.154;13.812;2023-06-26T04:37:22;51907.06;;;-146.96;94.73
39105;BME280;46464;51.154;13.812;2023-06-26T04:39:50;51890.78;;;-146.96;94.16
39105;BME280;46464;51.154;13.812;2023-06-26T04:45:29;51913.16;;;-146.96;93.99
39105;BME280;46464;51.154;13.812;2023-06-26T04:47:56;51868.41;;;-146.96;93.79
39105;BME280;46464;51.154;13.812;2023-06-26T04:50:23;51854.16;;;-146.96;94.74
39105;BME280;46464;51.154;13.812;2023-06-26T04:52:49;51886.72;;;-146.96;94.54
39105;BME280;46464;51.154;13.812;2023-06-26T04:55:16;51850.09;;;-146.96;94.17
39105;BME280;46464;51.154;13.812;2023-06-26T04:57:42;51882.66;;;-146.96;94.28
39105;BME280;46464;51.154;13.812;2023-06-26T05:00:09;51846.03;;;-146.96;93.43
39105;BME280;46464;51.154;13.812;2023-06-26T05:02:37;51823.66;;;-146.96;93.31
39105;BME280;46464;51.154;13.812;2023-06-26T05:05:04;51850.09;;;-146.96;91.95
39105;BME280;46464;51.154;13.812;2023-06-26T05:07:30;51831.78;;;-146.96;90.62
39105;BME280;46464;51.154;13.812;2023-06-26T05:09:57;51813.47;;;-146.96;88.82
39105;BME280;46464;51.154;13.812;2023-06-26T05:12:23;51829.75;;;-146.96;88.42
39105;BME280;46464;51.154;13.812;2023-06-26T05:14:50;51823.66;;;-146.96;87.88
39105;BME280;46464;51.154;13.812;2023-06-26T05:17:16;51797.19;;;-146.96;87.84
39105;BME280;46464;51.154;13.812;2023-06-26T05:19:43;51795.16;;;-146.96;87.40
39105;BME280;46464;51.154;13.812;2023-06-26T05:22:10;51764.66;;;-146.96;85.91
39105;BME280;46464;51.154;13.812;2023-06-26T05:24:39;51756.50;;;-146.96;85.63
39105;BME280;46464;51.154;13.812;2023-06-26T05:27:06;51730.06;;;-146.96;82.09
39105;BME280;46464;51.154;13.812;2023-06-26T05:29:33;51652.75;;;-146.96;76.34
39105;BME280;46464;51.154;13.812;2023-06-26T05:32:04;51605.97;;;-146.96;69.63
39105;BME280;46464;51.154;13.812;2023-06-26T05:34:31;51551.03;;;-146.96;64.19
39105;BME280;46464;51.154;13.812;2023-06-26T05:37:00;51461.53;;;-146.96;61.34
39105;BME280;46464;51.154;13.812;2023-06-26T05:39:27;51435.09;;;-146.96;58.98
39105;BME280;46464;51.154;13.812;2023-06-26T05:41:55;51406.59;;;-146.96;56.07
39105;BME280;46464;51.154;13.812;2023-06-26T05:44:22;51374.06;;;-146.96;55.21
39105;BME280;46464;51.154;13.812;2023-06-26T05:46:49;51341.50;;;-146.96;54.22
39105;BME280;46464;51.154;13.812;2023-06-26T05:49:15;51337.44;;;-146.96;51.01
39105;BME280;46464;51.154;13.812;2023-06-26T05:51:42;51304.88;;;-146.96;50.22
39105;BME280;46464;51.154;13.812;2023-06-26T05:54:09;51264.19;;;-146.96;49.58
39105;BME280;46464;51.154;13.812;2023-06-26T05:56:36;51258.09;;;-146.96;49.03
39105;BME280;46464;51.154;13.812;2023-06-26T05:59:03;51258.09;;;-146.96;46.64
39105;BME280;46464;51.154;13.812;2023-06-26T06:01:32;51182.84;;;-146.96;46.64
39105;BME280;46464;51.154;13.812;2023-06-26T06:03:59;51205.22;;;-146.96;44.96
39105;BME280;46464;51.154;13.812;2023-06-26T06:06:26;51176.72;;;-146.96;45.87
39105;BME280;46464;51.154;13.812;2023-06-26T06:08:53;51178.78;;;-146.96;45.78
39105;BME280;46464;51.154;13.812;2023-06-26T06:11:19;51129.94;;;-146.96;46.05
39105;BME280;46464;51.154;13.812;2023-06-26T06:13:46;51113.69;;;-146.96;45.13
39105;BME280;46464;51.154;13.812;2023-06-26T06:16:12;51091.31;;;-146.96;43.45
39105;BME280;46464;51.154;13.812;2023-06-26T06:18:39;51115.72;;;-146.96;42.66
39105;BME280;46464;51.154;13.812;2023-06-26T06:21:05;51085.19;;;-146.96;42.06
39105;BME280;46464;51.154;13.812;2023-06-26T06:23:32;51073.00;;;-146.96;42.43
39105;BME280;46464;51.154;13.812;2023-06-26T06:25:58;51097.41;;;-146.96;42.11
39105;BME280;46464;51.154;13.812;2023-06-26T06:28:25;51097.41;;;-146.96;42.29
39105;BME280;46464;51.154;13.812;2023-06-26T06:30:51;51070.97;;;-146.96;41.23
39105;BME280;46464;51.154;13.812;2023-06-26T06:33:19;51073.00;;;-146.96;41.90
39105;BME280;46464;51.154;13.812;2023-06-26T06:35:45;51077.06;;;-146.96;41.52
39105;BME280;46464;51.154;13.812;2023-06-26T06:38:12;51042.47;;;-146.96;41.35
39105;BME280;46464;51.154;13.812;2023-06-26T06:40:38;51044.53;;;-146.96;41.34
39105;BME280;46464;51.154;13.812;2023-06-26T06:43:05;51030.28;;;-146.96;41.54
39105;BME280;46464;51.154;13.812;2023-06-26T06:45:32;51048.59;;;-146.96;41.51
39105;BME280;46464;51.154;13.812;2023-06-26T06:47:58;51038.41;;;-146.96;40.55
39105;BME280;46464;51.154;13.812;2023-06-26T06:50:25;51036.38;;;-146.96;41.79
39105;BME280;46464;51.154;13.812;2023-06-26T06:52:51;51016.03;;;-146.96;42.01
39105;BME280;46464;51.154;13.812;2023-06-26T06:55:18;51040.44;;;-146.96;41.38
39105;BME280;46464;51.154;13.812;2023-06-26T06:57:45;51022.16;;;-146.96;40.02
39105;BME280;46464;51.154;13.812;2023-06-26T07:00:12;51064.84;;;-146.96;41.14
39105;BME280;46464;51.154;13.812;2023-06-26T07:02:42;51077.06;;;-146.96;40.97
39105;BME280;46464;51.154;13.812;2023-06-26T07:05:10;51056.72;;;-146.96;41.76
39105;BME280;46464;51.154;13.812;2023-06-26T07:07:38;51048.59;;;-146.96;41.04
39105;BME280;46464;51.154;13.812;2023-06-26T07:10:06;51064.84;;;-146.96;41.19
39105;BME280;46464;51.154;13.812;2023-06-26T07:12:34;51077.06;;;-146.96;42.08
39105;BME280;46464;51.154;13.812;2023-06-26T07:15:02;51044.53;;;-146.96;41.57
39105;BME280;46464;51.154;13.812;2023-06-26T07:17:31;51083.16;;;-146.96;43.04
39105;BME280;46464;51.154;13.812;2023-06-26T07:19:59;51105.53;;;-146.96;42.10
39105;BME280;46464;51.154;13.812;2023-06-26T07:22:26;51077.06;;;-146.96;43.10
39105;BME280;46464;51.154;13.812;2023-06-26T07:24:53;51099.44;;;-146.96;44.40
39105;BME280;46464;51.154;13.812;2023-06-26T07:27:20;51119.78;;;-146.96;43.90
39105;BME280;46464;51.154;13.812;2023-06-26T07:29:46;51089.25;;;-146.96;41.79
39105;BME280;46464;51.154;13.812;2023-06-26T07:32:13;51138.09;;;-146.96;44.22
39105;BME280;46464;51.154;13.812;2023-06-26T07:34:41;51117.75;;;-146.96;44.74
39105;BME280;46464;51.154;13.812;2023-06-26T07:37:32;51152.31;;;-146.96;46.04
39105;BME280;46464;51.154;13.812;2023-06-26T07:39:59;51164.53;;;-146.96;43.91
39105;BME280;46464;51.154;13.812;2023-06-26T07:42:26;51158.44;;;-146.96;45.83
39105;BME280;46464;51.154;13.812;2023-06-26T07:44:52;51197.06;;;-146.96;41.17
39105;BME280;46464;51.154;13.812;2023-06-26T07:47:19;51150.28;;;-146.96;45.39
39105;BME280;46464;51.154;13.812;2023-06-26T07:49:45;51131.97;;;-146.96;44.64
39105;BME280;46464;51.154;13.812;2023-06-26T07:52:12;51127.91;;;-146.96;45.31
39105;BME280;46464;51.154;13.812;2023-06-26T07:54:38;51148.25;;;-146.96;45.64
39105;BME280;46464;51.154;13.812;2023-06-26T07:57:05;51154.34;;;-146.96;43.37
39105;BME280;46464;51.154;13.812;2023-06-26T07:59:35;51201.16;;;-146.96;40.83
39105;BME280;46464;51.154;13.812;2023-06-26T08:02:02;51213.34;;;-146.96;41.25
39105;BME280;46464;51.154;13.812;2023-06-26T08:04:29;51199.09;;;-146.96;39.76
39105;BME280;46464;51.154;13.812;2023-06-26T08:06:59;51213.34;;;-146.96;40.96
39105;BME280;46464;51.154;13.812;2023-06-26T08:09:27;51182.84;;;-146.96;42.86
39105;BME280;46464;51.154;13.812;2023-06-26T08:11:54;51245.91;;;-146.96;42.20
39105;BME280;46464;51.154;13.812;2023-06-26T08:14:21;51193.00;;;-146.96;41.27
39105;BME280;46464;51.154;13.812;2023-06-26T08:16:48;51186.91;;;-146.96;42.00
39105;BME280;46464;51.154;13.812;2023-06-26T08:19:16;51180.81;;;-146.96;43.11
39105;BME280;46464;51.154;13.812;2023-06-26T08:21:44;51144.19;;;-146.96;42.41
39105;BME280;46464;51.154;13.812;2023-06-26T08:24:12;51131.97;;;-146.96;43.84
39105;BME280;46464;51.154;13.812;2023-06-26T08:26:39;51152.31;;;-146.96;39.66
39105;BME280;46464;51.154;13.812;2023-06-26T08:29:06;51156.41;;;-146.96;39.23
39105;BME280;46464;51.154;13.812;2023-06-26T08:31:39;51156.41;;;-146.96;39.43
39105;BME280;46464;51.154;13.812;2023-06-26T08:34:07;51193.00;;;-146.96;39.06
39105;BME280;46464;51.154;13.812;2023-06-26T08:36:34;51184.88;;;-146.96;39.24
39105;BME280;46464;51.154;13.812;2023-06-26T08:39:01;51203.19;;;-146.96;38.39
39105;BME280;46464;51.154;13.812;2023-06-26T08:41:29;51213.34;;;-146.96;38.94
39105;BME280;46464;51.154;13.812;2023-06-26T08:43:56;51184.88;;;-146.96;39.48
39105;BME280;46464;51.154;13.812;2023-06-26T08:46:22;51172.66;;;-146.96;39.01
39105;BME280;46464;51.154;13.812;2023-06-26T08:49:01;51158.44;;;-146.96;38.23
39105;BME280;46464;51.154;13.812;2023-06-26T08:51:28;51195.03;;;-146.96;38.23
39105;BME280;46464;51.154;13.812;2023-06-26T08:54:01;51162.50;;;-146.96;39.27
39105;BME280;46464;51.154;13.812;2023-06-26T08:56:36;51154.34;;;-146.96;37.62
39105;BME280;46464;51.154;13.812;2023-06-26T08:59:04;51138.09;;;-146.96;37.39
39105;BME280;46464;51.154;13.812;2023-06-26T09:01:31;51131.97;;;-146.96;38.46
39105;BME280;46464;51.154;13.812;2023-06-26T09:03:58;51142.16;;;-146.96;37.16
39105;BME280;46464;51.154;13.812;2023-06-26T09:06:25;51121.81;;;-146.96;38.23
39105;BME280;46464;51.154;13.812;2023-06-26T09:08:52;51117.75;;;-146.96;37.55
39105;BME280;46464;51.154;13.812;2023-06-26T09:11:18;51154.34;;;-146.96;38.18
39105;BME280;46464;51.154;13.812;2023-06-26T09:13:45;51131.97;;;-146.96;39.81
39105;BME280;46464;51.154;13.812;2023-06-26T09:16:14;51123.84;;;-146.96;38.83
39105;BME280;46464;51.154;13.812;2023-06-26T09:18:41;51142.16;;;-146.96;40.48
39105;BME280;46464;51.154;13.812;2023-06-26T09:21:11;51087.22;;;-146.96;39.30
39105;BME280;46464;51.154;13.812;2023-06-26T09:23:41;51095.38;;;-146.96;40.40
39105;BME280;46464;51.154;13.812;2023-06-26T09:26:22;51109.59;;;-146.96;38.94
39105;BME280;46464;51.154;13.812;2023-06-26T09:28:58;51117.75;;;-146.96;38.63
39105;BME280;46464;51.154;13.812;2023-06-26T09:31:38;51050.63;;;-146.96;40.84
39105;BME280;46464;51.154;13.812;2023-06-26T09:34:08;51066.91;;;-146.96;38.48
39105;BME280;46464;51.154;13.812;2023-06-26T09:36:41;51028.25;;;-146.96;40.69
39105;BME280;46464;51.154;13.812;2023-06-26T09:39:20;51056.72;;;-146.96;40.98
39105;BME280;46464;51.154;13.812;2023-06-26T09:41:52;51050.63;;;-146.96;37.43
39105;BME280;46464;51.154;13.812;2023-06-26T09:44:24;51052.66;;;-146.96;40.20
39105;BME280;46464;51.154;13.812;2023-06-26T09:46:57;51050.63;;;-146.96;36.99
39105;BME280;46464;51.154;13.812;2023-06-26T09:49:31;51077.06;;;-146.96;38.81
39105;BME280;46464;51.154;13.812;2023-06-26T09:52:10;51056.72;;;-146.96;37.17
39105;BME280;46464;51.154;13.812;2023-06-26T09:54:42;51081.13;;;-146.96;38.81
39105;BME280;46464;51.154;13.812;2023-06-26T09:58:01;51079.09;;;-146.96;38.58
39105;BME280;46464;51.154;13.812;2023-06-26T10:00:34;51081.13;;;-146.96;38.23
39105;BME280;46464;51.154;13.812;2023-06-26T10:03:24;51073.00;;;-146.96;38.92
39105;BME280;46464;51.154;13.812;2023-06-26T10:05:59;51081.13;;;-146.96;38.81
39105;BME280;46464;51.154;13.812;2023-06-26T10:08:30;51052.66;;;-146.96;39.21
39105;BME280;46464;51.154;13.812;2023-06-26T10:11:03;51040.44;;;-146.96;36.09
39105;BME280;46464;51.154;13.812;2023-06-26T10:13:56;51034.34;;;-146.96;36.33
39105;BME280;46464;51.154;13.812;2023-06-26T10:16:47;51042.47;;;-146.96;36.56
39105;BME280;46464;51.154;13.812;2023-06-26T10:19:25;51058.75;;;-146.96;36.90
39105;BME280;46464;51.154;13.812;2023-06-26T10:22:08;51054.69;;;-146.96;39.23
39105;BME280;46464;51.154;13.812;2023-06-26T10:24:47;51056.72;;;-146.96;37.07
39105;BME280;46464;51.154;13.812;2023-06-26T10:27:33;51044.53;;;-146.96;36.25
39105;BME280;46464;51.154;13.812;2023-06-26T10:30:12;51056.72;;;-146.96;36.98
39105;BME280;46464;51.154;13.812;2023-06-26T10:32:40;51036.38;;;-146.96;36.25
39105;BME280;46464;51.154;13.812;2023-06-26T10:35:29;51018.06;;;-146.96;36.15
39105;BME280;46464;51.154;13.812;2023-06-26T10:38:09;50999.78;;;-146.96;36.01
39105;BME280;46464;51.154;13.812;2023-06-26T10:41:14;51052.66;;;-146.96;36.99
39105;BME280;46464;51.154;13.812;2023-06-26T10:47:30;51011.97;;;-146.96;36.39
39105;BME280;46464;51.154;13.812;2023-06-26T10:50:27;51011.97;;;-146.96;35.60
39105;BME280;46464;51.154;13.812;2023-06-26T10:56:07;51003.84;;;-146.96;38.64
39105;BME280;46464;51.154;13.812;2023-06-26T10:58:52;51022.16;;;-146.96;35.73
39105;BME280;46464;51.154;13.812;2023-06-26T11:04:40;50999.78;;;-146.96;35.72
39105;BME280;46464;51.154;13.812;2023-06-26T11:08:07;51016.03;;;-146.96;35.90
39105;BME280;46464;51.154;13.812;2023-06-26T11:11:02;51032.31;;;-146.96;35.91
39105;BME280;46464;51.154;13.812;2023-06-26T11:13:37;51048.59;;;-146.96;36.30
39105;BME280;46464;51.154;13.812;2023-06-26T11:16:10;50995.69;;;-146.96;34.98
39105;BME280;46464;51.154;13.812;2023-06-26T11:18:48;51028.25;;;-146.96;35.46
39105;BME280;46464;51.154;13.812;2023-06-26T11:21:25;50985.53;;;-146.96;34.81
39105;BME280;46464;51.154;13.812;2023-06-26T11:24:04;51011.97;;;-146.96;38.28
39105;BME280;46464;51.154;13.812;2023-06-26T11:26:45;51009.94;;;-146.96;34.88
39105;BME280;46464;51.154;13.812;2023-06-26T11:29:23;50969.25;;;-146.96;36.19
39105;BME280;46464;51.154;13.812;2023-06-26T11:32:11;50955.03;;;-146.96;33.95
39105;BME280;46464;51.154;13.812;2023-06-26T11:34:45;50985.53;;;-146.96;35.89
39105;BME280;46464;51.154;13.812;2023-06-26T11:37:17;50959.09;;;-146.96;34.36
39105;BME280;46464;51.154;13.812;2023-06-26T11:39:59;50955.03;;;-146.96;36.17
39105;BME280;46464;51.154;13.812;2023-06-26T11:42:35;50932.66;;;-146.96;35.63
39105;BME280;46464;51.154;13.812;2023-06-26T11:45:21;50957.06;;;-146.96;34.13
39105;BME280;46464;51.154;13.812;2023-06-26T11:48:33;50975.34;;;-146.96;34.50
39105;BME280;46464;51.154;13.812;2023-06-26T11:51:08;50989.59;;;-146.96;34.47
39105;BME280;46464;51.154;13.812;2023-06-26T11:53:40;51007.91;;;-146.96;35.17
39105;BME280;46464;51.154;13.812;2023-06-26T11:56:17;50979.44;;;-146.96;34.26
39105;BME280;46464;51.154;13.812;2023-06-26T11:59:11;50979.44;;;-146.96;35.34
39105;BME280;46464;51.154;13.812;2023-06-26T12:01:44;50959.09;;;-146.96;33.41
39105;BME280;46464;51.154;13.812;2023-06-26T12:04:22;50952.97;;;-146.96;35.58
39105;BME280;46464;51.154;13.812;2023-06-26T12:07:03;50987.56;;;-146.96;33.05
39105;BME280;46464;51.154;13.812;2023-06-26T12:09:41;50957.06;;;-146.96;34.99
39105;BME280;46464;51.154;13.812;2023-06-26T12:12:21;50940.78;;;-146.96;35.63
39105;BME280;46464;51.154;13.812;2023-06-26T12:14:53;50942.81;;;-146.96;34.18
39105;BME280;46464;51.154;13.812;2023-06-26T12:17:32;50936.72;;;-146.96;33.05
39105;BME280;46464;51.154;13.812;2023-06-26T12:20:27;50932.66;;;-146.96;32.94
39105;BME280;46464;51.154;13.812;2023-06-26T12:23:11;50940.78;;;-146.96;33.15
39105;BME280;46464;51.154;13.812;2023-06-26T12:25:40;50940.78;;;-146.96;34.80
39105;BME280;46464;51.154;13.812;2023-06-26T12:28:37;50963.16;;;-146.96;33.48
39105;BME280;46464;51.154;13.812;2023-06-26T12:31:14;50938.75;;;-146.96;34.24
39105;BME280;46464;51.154;13.812;2023-06-26T12:33:51;50936.72;;;-146.96;34.47
39105;BME280;46464;51.154;13.812;2023-06-26T12:36:40;50912.31;;;-146.96;34.97
39105;BME280;46464;51.154;13.812;2023-06-26T12:39:21;50952.97;;;-146.96;34.30
39105;BME280;46464;51.154;13.812;2023-06-26T12:44:48;50950.94;;;-146.96;33.72
39105;BME280;46464;51.154;13.812;2023-06-26T12:47:29;50914.34;;;-146.96;34.81
39105;BME280;46464;51.154;13.812;2023-06-26T12:50:26;50948.91;;;-146.96;32.83
39105;BME280;46464;51.154;13.812;2023-06-26T12:52:53;50902.13;;;-146.96;32.79
39105;BME280;46464;51.154;13.812;2023-06-26T12:55:20;50914.34;;;-146.96;32.80
39105;BME280;46464;51.154;13.812;2023-06-26T12:58:00;50936.72;;;-146.96;34.06
39105;BME280;46464;51.154;13.812;2023-06-26T13:00:29;50902.13;;;-146.96;33.39
39105;BME280;46464;51.154;13.812;2023-06-26T13:03:08;50957.06;;;-146.96;34.10
39105;BME280;46464;51.154;13.812;2023-06-26T13:05:40;50920.44;;;-146.96;33.66
39105;BME280;46464;51.154;13.812;2023-06-26T13:08:23;50906.19;;;-146.96;33.87
39105;BME280;46464;51.154;13.812;2023-06-26T13:10:50;50926.53;;;-146.96;33.46